Time;durP1;ratioP1;P1;durP2;ratioP2;P2;SDS_P1;SDS_P2;PMS_P1;PMS_P2;Temp;Humidity;BMP_temperature;BMP_pressure;BME280_temperature;BME280_humidity;BME280_pressure;Samples;Min_cycle;Max_cycle;Signal;HPM_P1;HPM_P2
2021/12/31 00:01:07;;;;;;;23.38;17.15;;;28.70;87.50;;;;;;5043620;28;20085;-46
2021/12/31 00:03:34;;;;;;;23.85;16.65;;;28.70;87.80;;;;;;5056658;28;20024;-53
2021/12/31 00:06:00;;;;;;;24.92;17.33;;;28.70;87.80;;;;;;5056679;28;20036;-53
2021/12/31 00:08:27;;;;;;;23.85;17.02;;;28.70;87.50;;;;;;5038318;28;20021;-45
2021/12/31 00:10:59;;;;;;;27.77;16.83;;;28.70;87.50;;;;;;5063650;28;20182;-54
2021/12/31 00:13:27;;;;;;;31.50;16.67;;;28.70;87.30;;;;;;5063161;28;20025;-47
2021/12/31 00:15:54;;;;;;;28.27;15.85;;;28.70;87.30;;;;;;5063852;28;20024;-49
2021/12/31 00:18:22;;;;;;;27.67;14.63;;;28.70;87.10;;;;;;5061091;28;20205;-56
2021/12/31 00:20:48;;;;;;;26.20;14.30;;;28.70;87.00;;;;;;5057015;28;20022;-43
2021/12/31 00:23:17;;;;;;;33.05;15.13;;;28.70;86.90;;;;;;5051961;28;20036;-43
2021/12/31 00:25:44;;;;;;;33.40;15.32;;;28.70;86.90;;;;;;5042653;28;20072;-47
2021/12/31 00:28:12;;;;;;;34.92;16.52;;;28.70;86.90;;;;;;5043522;28;20108;-47
2021/12/31 00:30:40;;;;;;;30.67;15.05;;;28.70;86.90;;;;;;5043492;28;20105;-46
2021/12/31 00:33:08;;;;;;;32.13;14.27;;;28.70;86.90;;;;;;5049766;28;20013;-47
2021/12/31 00:35:36;;;;;;;23.65;12.75;;;28.70;87.40;;;;;;5050287;28;20076;-47
2021/12/31 00:38:02;;;;;;;24.58;12.05;;;28.60;86.80;;;;;;5050123;28;20043;-47
2021/12/31 00:40:29;;;;;;;27.15;11.75;;;28.60;86.80;;;;;;5050023;28;20032;-50
2021/12/31 00:42:56;;;;;;;24.35;10.65;;;28.60;86.80;;;;;;5048735;28;20084;-44
2021/12/31 00:45:27;;;;;;;28.15;10.95;;;28.60;86.80;;;;;;5049651;28;20025;-43
2021/12/31 00:47:54;;;;;;;18.42;10.18;;;28.60;86.70;;;;;;5049818;28;20017;-51
2021/12/31 00:50:22;;;;;;;17.38;10.90;;;28.60;86.80;;;;;;5049992;28;20025;-51
2021/12/31 00:52:48;;;;;;;29.60;15.40;;;28.60;86.70;;;;;;5049933;28;20013;-50
2021/12/31 00:55:15;;;;;;;27.67;15.75;;;28.60;86.70;;;;;;5050304;28;20210;-50
2021/12/31 00:57:42;;;;;;;22.67;13.07;;;28.60;86.70;;;;;;5049951;28;20101;-47
2021/12/31 01:00:12;;;;;;;19.10;11.52;;;28.60;86.70;;;;;;5050477;28;20021;-46
2021/12/31 01:02:39;;;;;;;23.08;10.45;;;28.60;86.70;;;;;;5049744;28;20036;-47
2021/12/31 01:05:06;;;;;;;17.38;10.73;;;28.60;86.60;;;;;;5050195;28;20022;-45
2021/12/31 01:07:33;;;;;;;16.10;10.07;;;28.60;86.60;;;;;;5049816;28;20132;-42
2021/12/31 01:10:01;;;;;;;17.10;11.63;;;28.60;86.60;;;;;;5050193;28;20085;-43
2021/12/31 01:12:28;;;;;;;16.38;12.93;;;28.60;86.60;;;;;;5049889;28;20022;-45
2021/12/31 01:15:04;;;;;;;22.00;12.82;;;28.50;86.50;;;;;;5050304;28;20025;-49
2021/12/31 01:20:17;;;;;;;16.60;9.10;;;28.60;86.50;;;;;;5050312;28;20072;-44
2021/12/31 01:22:44;;;;;;;17.67;10.52;;;28.60;86.50;;;;;;5049696;28;20229;-45
2021/12/31 01:25:11;;;;;;;18.70;12.27;;;28.50;86.50;;;;;;5050091;28;20221;-47
2021/12/31 01:27:42;;;;;;;21.67;14.82;;;28.50;86.50;;;;;;5049823;28;20052;-43
2021/12/31 01:30:10;;;;;;;21.33;14.07;;;28.50;86.60;;;;;;5062828;28;20206;-53
2021/12/31 01:32:37;;;;;;;21.33;13.23;;;28.50;86.50;;;;;;5057174;28;20017;-47
2021/12/31 01:35:04;;;;;;;17.88;12.35;;;28.50;86.50;;;;;;5068317;28;20025;-54
2021/12/31 01:37:31;;;;;;;18.73;13.35;;;28.50;86.50;;;;;;5062014;28;20017;-48
2021/12/31 01:39:57;;;;;;;23.08;13.02;;;28.50;86.50;;;;;;5063021;28;20297;-41
2021/12/31 01:42:33;;;;;;;17.90;12.80;;;28.50;86.50;;;;;;5067130;28;20035;-50
2021/12/31 01:45:32;;;;;;;25.13;12.40;;;28.50;86.40;;;;;;5066393;28;20029;-43
2021/12/31 01:48:08;;;;;;;22.45;12.65;;;28.50;86.50;;;;;;5035300;28;20029;-46
2021/12/31 01:50:36;;;;;;;19.20;12.43;;;28.50;86.50;;;;;;5046238;28;20018;-49
2021/12/31 01:53:03;;;;;;;22.27;13.48;;;28.50;86.50;;;;;;5061137;28;20039;-44
2021/12/31 01:55:32;;;;;;;27.00;14.43;;;28.50;86.60;;;;;;5055823;28;20032;-49
2021/12/31 01:58:01;;;;;;;25.30;15.25;;;28.40;86.50;;;;;;5054869;28;20028;-46
2021/12/31 02:00:27;;;;;;;25.60;14.32;;;28.50;86.60;;;;;;5049908;28;20210;-50
2021/12/31 02:02:55;;;;;;;26.20;14.88;;;28.50;86.60;;;;;;5062862;28;20024;-47
2021/12/31 02:05:22;;;;;;;26.85;16.15;;;28.50;86.60;;;;;;5065624;28;20032;-46
2021/12/31 02:07:48;;;;;;;26.48;15.70;;;28.40;86.50;;;;;;5065741;28;20092;-48
2021/12/31 02:10:15;;;;;;;30.13;14.68;;;28.40;86.40;;;;;;5066390;28;20025;-48
2021/12/31 02:12:46;;;;;;;27.13;13.90;;;28.40;86.40;;;;;;5065943;28;20317;-44
2021/12/31 02:15:14;;;;;;;20.20;13.20;;;28.40;86.30;;;;;;5066126;28;20028;-48
2021/12/31 02:17:40;;;;;;;20.75;12.98;;;28.40;86.30;;;;;;5065674;28;20096;-43
2021/12/31 02:20:08;;;;;;;21.70;12.05;;;28.40;86.30;;;;;;5065861;28;20025;-47
2021/12/31 02:22:39;;;;;;;16.35;10.90;;;28.40;86.20;;;;;;5065550;28;20024;-50
2021/12/31 02:25:10;;;;;;;14.73;10.13;;;28.40;86.20;;;;;;5066173;28;20044;-44
2021/12/31 02:27:38;;;;;;;22.17;11.00;;;28.40;86.10;;;;;;5060082;28;20024;-42
2021/12/31 02:30:06;;;;;;;17.50;10.85;;;28.40;86.10;;;;;;5058015;28;20024;-50
2021/12/31 02:32:33;;;;;;;17.95;10.25;;;28.40;86.10;;;;;;5058769;28;20062;-45
2021/12/31 02:34:59;;;;;;;14.88;10.00;;;28.40;86.10;;;;;;5054028;28;20036;-47
2021/12/31 02:37:26;;;;;;;19.95;12.30;;;28.40;86.00;;;;;;5053816;28;20041;-48
2021/12/31 02:39:53;;;;;;;24.05;13.77;;;28.40;86.00;;;;;;5055948;28;20321;-44
2021/12/31 02:42:19;;;;;;;19.98;14.38;;;28.40;86.00;;;;;;5060992;28;20032;-46
2021/12/31 02:44:46;;;;;;;24.33;16.15;;;28.30;86.00;;;;;;5065401;28;20037;-43
2021/12/31 02:47:13;;;;;;;24.92;15.52;;;28.40;86.00;;;;;;5063759;28;20066;-53
2021/12/31 02:49:41;;;;;;;23.38;14.70;;;28.30;86.00;;;;;;5062821;28;20066;-48
2021/12/31 02:52:11;;;;;;;27.60;13.52;;;28.30;86.00;;;;;;5053436;28;20059;-45
2021/12/31 02:54:42;;;;;;;19.00;11.80;;;28.30;86.00;;;;;;5054847;28;20048;-42
2021/12/31 02:57:09;;;;;;;22.67;12.52;;;28.30;86.50;;;;;;5055692;28;20013;-47
2021/12/31 02:59:36;;;;;;;23.25;12.32;;;28.30;86.00;;;;;;5055059;28;20221;-46
2021/12/31 03:02:06;;;;;;;20.45;13.43;;;28.30;86.00;;;;;;5062261;28;20362;-49
2021/12/31 03:04:36;;;;;;;28.17;14.75;;;28.30;86.00;;;;;;5056962;28;20096;-46
2021/12/31 03:07:04;;;;;;;34.55;18.20;;;28.30;86.10;;;;;;5073903;28;20033;-45
2021/12/31 03:09:34;;;;;;;38.05;17.15;;;28.30;86.20;;;;;;5053670;28;20017;-44
2021/12/31 03:12:02;;;;;;;33.13;16.20;;;28.20;86.10;;;;;;5054603;28;20332;-44
2021/12/31 03:14:29;;;;;;;31.50;15.80;;;28.30;86.20;;;;;;5052929;28;20040;-45
2021/12/31 03:16:57;;;;;;;30.33;14.82;;;28.30;86.20;;;;;;5050093;28;20017;-43
2021/12/31 03:19:24;;;;;;;30.38;14.40;;;28.30;86.20;;;;;;5044908;28;20033;-44
2021/12/31 03:21:50;;;;;;;28.48;13.20;;;28.20;86.20;;;;;;5044486;28;20072;-43
2021/12/31 03:24:17;;;;;;;20.88;14.32;;;28.20;86.20;;;;;;5060078;28;20051;-46
2021/12/31 03:26:43;;;;;;;23.55;15.20;;;28.20;86.20;;;;;;5044555;28;20124;-48
2021/12/31 03:29:10;;;;;;;23.73;15.68;;;28.20;86.20;;;;;;5044781;28;20033;-42
2021/12/31 03:31:36;;;;;;;22.63;14.20;;;28.20;86.20;;;;;;5061189;28;20395;-43
2021/12/31 03:34:03;;;;;;;18.30;15.20;;;28.20;86.20;;;;;;5036599;28;20029;-45
2021/12/31 03:36:30;;;;;;;31.58;21.38;;;28.20;86.10;;;;;;5043223;28;20288;-51
2021/12/31 03:38:56;;;;;;;43.42;29.42;;;28.20;86.10;;;;;;5044492;28;20033;-48
2021/12/31 03:41:23;;;;;;;35.08;23.05;;;28.20;86.50;;;;;;5044172;28;20060;-43
2021/12/31 03:43:49;;;;;;;33.30;21.05;;;28.20;86.00;;;;;;5042750;28;20017;-46
2021/12/31 03:46:16;;;;;;;31.33;24.63;;;28.20;85.80;;;;;;5035834;28;20025;-42
2021/12/31 03:48:43;;;;;;;31.20;25.10;;;28.20;85.80;;;;;;5033229;28;20017;-42
2021/12/31 03:51:09;;;;;;;30.58;24.58;;;28.20;85.70;;;;;;5075825;28;20028;-45
2021/12/31 03:53:36;;;;;;;29.63;24.75;;;28.20;85.60;;;;;;5043389;28;20017;-41
2021/12/31 03:56:02;;;;;;;36.63;25.85;;;28.20;85.60;;;;;;5044156;28;20017;-46
2021/12/31 03:58:29;;;;;;;33.70;24.67;;;28.20;85.60;;;;;;5043164;28;20025;-45
2021/12/31 04:00:56;;;;;;;29.27;23.10;;;28.10;85.60;;;;;;5043819;28;20314;-50
2021/12/31 04:03:22;;;;;;;30.17;23.77;;;28.10;85.50;;;;;;5043790;28;20280;-49
2021/12/31 04:05:53;;;;;;;29.30;24.13;;;28.20;85.60;;;;;;5043176;28;20222;-49
2021/12/31 04:08:20;;;;;;;29.02;20.77;;;28.20;85.60;;;;;;5043918;28;20030;-50
2021/12/31 04:10:46;;;;;;;25.77;20.20;;;28.20;85.50;;;;;;5032502;28;20017;-48
2021/12/31 04:13:13;;;;;;;21.50;18.27;;;28.20;85.40;;;;;;5042725;28;20032;-45
2021/12/31 04:15:40;;;;;;;27.55;19.17;;;28.20;85.40;;;;;;5043656;28;20210;-47
2021/12/31 04:18:07;;;;;;;23.38;17.05;;;28.20;85.30;;;;;;5043812;28;20024;-55
2021/12/31 04:20:37;;;;;;;23.25;16.80;;;28.20;85.30;;;;;;5043634;28;20028;-48
2021/12/31 04:23:11;;;;;;;20.77;17.30;;;28.20;85.30;;;;;;5043930;28;20055;-45
2021/12/31 04:25:38;;;;;;;21.70;17.27;;;28.20;85.20;;;;;;5043603;28;20037;-50
2021/12/31 04:28:05;;;;;;;21.30;16.70;;;28.20;85.20;;;;;;5043713;28;20029;-50
2021/12/31 04:30:32;;;;;;;18.38;16.40;;;28.20;85.20;;;;;;5048925;28;20049;-41
2021/12/31 04:33:00;;;;;;;20.92;17.45;;;28.20;85.20;;;;;;5063379;28;20017;-50
2021/12/31 04:35:27;;;;;;;19.05;15.50;;;28.20;85.20;;;;;;5063547;28;20039;-50
2021/12/31 04:37:54;;;;;;;23.27;17.15;;;28.20;85.20;;;;;;5062414;28;20038;-50
2021/12/31 04:40:20;;;;;;;25.75;17.48;;;28.20;85.20;;;;;;5063493;28;20028;-43
2021/12/31 04:42:48;;;;;;;27.55;18.27;;;28.20;85.10;;;;;;5063402;28;20020;-48
2021/12/31 04:45:15;;;;;;;25.27;18.38;;;28.20;85.20;;;;;;5063873;28;20029;-48
2021/12/31 04:47:41;;;;;;;29.92;18.98;;;28.10;85.10;;;;;;5063587;28;20017;-41
2021/12/31 04:50:09;;;;;;;20.50;17.65;;;28.20;85.20;;;;;;5063764;28;20021;-49
2021/12/31 04:52:36;;;;;;;20.95;17.58;;;28.10;85.10;;;;;;5063307;28;20043;-48
2021/12/31 04:55:03;;;;;;;22.33;17.88;;;28.10;85.10;;;;;;5063860;28;20221;-54
2021/12/31 04:57:30;;;;;;;21.67;17.17;;;28.10;85.10;;;;;;5063196;28;20025;-50
2021/12/31 04:59:56;;;;;;;21.90;17.80;;;28.10;85.20;;;;;;5063768;28;20063;-43
2021/12/31 05:02:23;;;;;;;27.08;17.13;;;28.10;85.20;;;;;;5063358;28;20191;-50
2021/12/31 05:04:50;;;;;;;23.15;17.30;;;28.10;85.20;;;;;;5063484;28;20025;-48
2021/12/31 05:07:16;;;;;;;20.50;15.80;;;28.10;85.20;;;;;;5063191;28;20024;-45
2021/12/31 05:09:43;;;;;;;23.42;16.08;;;28.10;85.20;;;;;;5063581;28;20017;-46
2021/12/31 05:12:14;;;;;;;20.80;15.43;;;28.10;85.20;;;;;;5063026;28;20025;-48
2021/12/31 05:14:42;;;;;;;19.55;15.18;;;28.10;85.20;;;;;;5063561;28;20021;-47
2021/12/31 05:17:09;;;;;;;21.50;14.05;;;28.10;85.20;;;;;;5063114;28;20033;-49
2021/12/31 05:19:36;;;;;;;15.45;13.77;;;28.10;85.20;;;;;;5066133;28;20048;-49
2021/12/31 05:22:03;;;;;;;18.88;13.88;;;28.10;85.20;;;;;;5066893;28;20317;-47
2021/12/31 05:24:29;;;;;;;17.55;12.23;;;28.10;85.20;;;;;;5067014;28;20367;-47
2021/12/31 05:26:56;;;;;;;16.48;12.13;;;28.10;85.20;;;;;;5066748;28;20012;-46
2021/12/31 05:29:23;;;;;;;16.45;12.32;;;28.10;85.20;;;;;;5067009;28;20092;-48
2021/12/31 05:31:49;;;;;;;19.25;12.90;;;28.10;85.30;;;;;;5066635;28;20104;-50
2021/12/31 05:34:16;;;;;;;17.63;12.52;;;28.10;85.30;;;;;;5066849;28;20028;-45
2021/12/31 05:36:42;;;;;;;17.23;12.40;;;28.10;85.30;;;;;;5066693;28;20182;-42
2021/12/31 05:39:10;;;;;;;17.90;11.55;;;28.10;85.30;;;;;;5064126;28;20033;-47
2021/12/31 05:41:39;;;;;;;20.60;12.02;;;28.10;85.40;;;;;;5051797;28;20085;-43
2021/12/31 05:44:06;;;;;;;18.38;11.02;;;28.10;86.00;;;;;;5066408;28;20074;-44
2021/12/31 05:46:33;;;;;;;19.98;9.57;;;28.00;86.20;;;;;;5066529;28;20329;-49
2021/12/31 05:49:00;;;;;;;13.43;9.40;;;28.00;86.20;;;;;;5066311;28;20024;-40
2021/12/31 05:51:27;;;;;;;12.18;8.27;;;28.00;86.30;;;;;;5066535;28;20017;-48
2021/12/31 05:53:55;;;;;;;15.40;8.50;;;28.00;86.40;;;;;;5066480;28;20195;-46
2021/12/31 05:56:21;;;;;;;9.20;8.25;;;27.90;86.40;;;;;;5066049;28;20268;-49
2021/12/31 05:58:48;;;;;;;12.60;8.48;;;28.00;86.50;;;;;;5066294;28;20029;-49
2021/12/31 06:01:14;;;;;;;10.95;7.43;;;28.00;86.70;;;;;;5064996;28;20194;-44
2021/12/31 06:03:41;;;;;;;12.73;7.80;;;27.90;86.60;;;;;;5066218;28;20071;-47
2021/12/31 06:06:08;;;;;;;12.75;7.40;;;27.90;86.60;;;;;;5066042;28;20084;-46
2021/12/31 06:08:34;;;;;;;10.68;6.75;;;27.90;86.60;;;;;;5066114;28;20056;-46
2021/12/31 06:11:01;;;;;;;11.82;7.30;;;27.90;86.70;;;;;;5065772;28;20028;-52
2021/12/31 06:13:28;;;;;;;13.23;7.40;;;27.90;86.70;;;;;;5066113;28;20024;-48
2021/12/31 06:15:57;;;;;;;11.90;7.32;;;27.80;86.70;;;;;;5065988;28;20029;-44
2021/12/31 06:18:27;;;;;;;10.32;6.97;;;27.80;86.70;;;;;;5065706;28;20035;-43
2021/12/31 06:20:54;;;;;;;10.10;7.07;;;27.80;86.80;;;;;;5065882;28;20040;-45
2021/12/31 06:23:21;;;;;;;11.15;6.75;;;27.80;86.70;;;;;;5065913;28;20033;-43
2021/12/31 06:25:47;;;;;;;11.70;6.80;;;27.80;86.70;;;;;;5065662;28;20048;-46
2021/12/31 06:28:14;;;;;;;11.15;6.70;;;27.80;86.70;;;;;;5064309;28;20025;-47
2021/12/31 06:30:40;;;;;;;12.98;6.70;;;27.80;86.60;;;;;;5065163;28;20174;-47
2021/12/31 06:33:07;;;;;;;13.82;6.25;;;27.80;86.50;;;;;;5065155;28;20009;-46
2021/12/31 06:35:36;;;;;;;10.35;6.32;;;27.80;86.50;;;;;;5065638;28;20072;-45
2021/12/31 06:38:03;;;;;;;11.88;6.65;;;27.70;86.40;;;;;;5065423;28;20044;-50
2021/12/31 06:40:31;;;;;;;11.63;6.82;;;27.70;86.30;;;;;;5065386;28;20325;-43
2021/12/31 06:42:58;;;;;;;10.55;7.70;;;27.70;86.30;;;;;;5065390;28;20031;-47
2021/12/31 06:45:25;;;;;;;14.77;8.43;;;27.70;86.20;;;;;;5065413;28;20099;-45
2021/12/31 06:47:51;;;;;;;13.15;9.18;;;27.70;86.20;;;;;;5065134;28;20100;-42
2021/12/31 06:50:18;;;;;;;11.93;8.98;;;27.70;86.30;;;;;;5065266;28;20028;-45
2021/12/31 06:52:46;;;;;;;14.20;8.90;;;27.70;86.30;;;;;;5065365;28;20063;-46
2021/12/31 06:55:13;;;;;;;13.73;8.40;;;27.70;86.20;;;;;;5065588;28;20021;-44
2021/12/31 06:57:39;;;;;;;10.80;8.07;;;27.70;86.20;;;;;;5065520;28;20209;-51
2021/12/31 07:00:08;;;;;;;14.07;10.00;;;27.70;86.20;;;;;;5065652;28;20020;-41
2021/12/31 07:02:34;;;;;;;16.10;14.43;;;27.70;86.20;;;;;;5065044;28;20032;-42
2021/12/31 07:05:01;;;;;;;21.52;16.52;;;27.70;86.20;;;;;;5065474;28;20051;-48
2021/12/31 07:07:27;;;;;;;16.85;14.80;;;27.70;86.20;;;;;;5065012;28;20021;-51
2021/12/31 07:09:54;;;;;;;23.90;19.35;;;27.60;86.00;;;;;;5065290;28;20059;-49
2021/12/31 07:12:20;;;;;;;25.52;17.58;;;27.70;86.10;;;;;;5065163;28;20025;-45
2021/12/31 07:14:47;;;;;;;22.05;13.85;;;27.60;86.00;;;;;;5065265;28;20020;-53
2021/12/31 07:17:13;;;;;;;15.75;10.82;;;27.60;86.00;;;;;;5064608;28;20048;-50
2021/12/31 07:19:40;;;;;;;13.88;9.50;;;27.60;86.00;;;;;;5064726;28;20375;-50
2021/12/31 07:22:06;;;;;;;14.50;8.90;;;27.60;86.00;;;;;;5063564;28;20037;-47
2021/12/31 07:24:33;;;;;;;12.90;8.20;;;27.60;86.00;;;;;;5064764;28;20202;-43
2021/12/31 07:26:59;;;;;;;12.98;8.07;;;27.60;85.90;;;;;;5064579;28;20029;-42
2021/12/31 07:29:26;;;;;;;11.48;7.80;;;27.60;85.80;;;;;;5064927;28;20092;-45
2021/12/31 07:31:52;;;;;;;9.82;7.50;;;27.60;85.80;;;;;;5064373;28;20064;-46
2021/12/31 07:34:19;;;;;;;10.93;7.57;;;27.50;85.70;;;;;;5064603;28;20032;-47
2021/12/31 07:36:45;;;;;;;12.20;7.45;;;27.50;85.70;;;;;;5064399;28;20013;-47
2021/12/31 07:39:13;;;;;;;10.23;7.80;;;27.50;85.70;;;;;;5064628;28;20017;-43
2021/12/31 07:41:40;;;;;;;10.82;7.20;;;27.50;85.70;;;;;;5063587;28;20179;-52
2021/12/31 07:44:07;;;;;;;9.05;6.72;;;27.50;85.80;;;;;;5064530;28;20048;-45
2021/12/31 07:46:34;;;;;;;11.00;6.25;;;27.50;85.80;;;;;;5064242;28;20028;-45
2021/12/31 07:49:01;;;;;;;10.00;6.70;;;27.50;85.80;;;;;;5064212;28;20055;-57
2021/12/31 07:51:27;;;;;;;9.15;5.93;;;27.50;85.80;;;;;;5064242;28;20017;-50
2021/12/31 07:53:54;;;;;;;8.98;6.40;;;27.40;85.60;;;;;;5064409;28;20028;-55
2021/12/31 07:56:21;;;;;;;11.52;6.57;;;27.40;85.60;;;;;;5063930;28;20021;-42
2021/12/31 07:58:47;;;;;;;11.30;6.78;;;27.40;85.70;;;;;;5064137;28;20033;-41
2021/12/31 08:01:16;;;;;;;12.55;6.90;;;27.40;85.70;;;;;;5064003;28;20090;-42
2021/12/31 08:03:43;;;;;;;11.18;6.78;;;27.40;85.60;;;;;;5063982;28;20029;-50
2021/12/31 08:06:10;;;;;;;10.68;6.05;;;27.40;85.60;;;;;;5063833;28;20146;-45
2021/12/31 08:08:36;;;;;;;9.63;6.30;;;27.30;85.50;;;;;;5063977;28;20032;-48
2021/12/31 08:11:03;;;;;;;12.15;6.22;;;27.30;85.60;;;;;;5063744;28;20268;-41
2021/12/31 08:13:29;;;;;;;12.57;5.75;;;27.40;85.70;;;;;;5063904;28;20427;-42
2021/12/31 08:15:56;;;;;;;9.88;5.95;;;27.30;85.60;;;;;;5063682;28;20074;-44
2021/12/31 08:18:23;;;;;;;9.27;6.03;;;27.30;85.60;;;;;;5063540;28;20029;-42
2021/12/31 08:20:50;;;;;;;8.07;5.85;;;27.30;85.60;;;;;;5063698;28;20083;-42
2021/12/31 08:23:17;;;;;;;9.32;6.13;;;27.30;85.50;;;;;;5063631;28;20028;-43
2021/12/31 08:25:43;;;;;;;7.15;5.90;;;27.30;85.50;;;;;;5063466;28;20025;-40
2021/12/31 08:28:11;;;;;;;14.15;6.40;;;27.30;85.60;;;;;;5063661;28;20016;-49
2021/12/31 08:30:38;;;;;;;8.32;5.70;;;27.30;85.60;;;;;;5063383;28;20330;-42
2021/12/31 08:33:04;;;;;;;8.23;5.93;;;27.30;85.50;;;;;;5063387;28;20058;-45
2021/12/31 08:35:31;;;;;;;12.23;5.75;;;27.30;85.60;;;;;;5063613;28;20040;-46
2021/12/31 08:37:58;;;;;;;6.20;5.25;;;27.30;85.60;;;;;;5063476;28;20048;-50
2021/12/31 08:40:26;;;;;;;11.15;5.78;;;27.30;85.60;;;;;;5063402;28;20021;-50
2021/12/31 08:42:52;;;;;;;11.90;6.03;;;27.30;85.60;;;;;;5063473;28;20020;-44
2021/12/31 08:45:19;;;;;;;9.38;5.70;;;27.30;85.50;;;;;;5063458;28;20021;-48
2021/12/31 08:47:47;;;;;;;10.20;6.03;;;27.30;86.00;;;;;;5063329;28;20037;-44
2021/12/31 08:50:13;;;;;;;6.85;5.40;;;27.30;85.50;;;;;;5063950;28;20066;-42
2021/12/31 08:52:40;;;;;;;6.60;5.63;;;27.30;85.50;;;;;;5064775;28;20017;-41
2021/12/31 08:55:09;;;;;;;8.20;5.43;;;27.30;85.50;;;;;;5067854;28;20039;-48
2021/12/31 08:57:35;;;;;;;9.48;5.55;;;27.30;85.50;;;;;;5067406;28;20098;-40
2021/12/31 09:00:07;;;;;;;9.65;6.00;;;27.30;85.70;;;;;;5067796;28;20032;-46
2021/12/31 09:02:35;;;;;;;10.50;5.72;;;27.20;85.60;;;;;;5067236;28;20044;-45
2021/12/31 09:05:02;;;;;;;9.05;5.75;;;27.20;85.60;;;;;;5067535;28;20364;-46
2021/12/31 09:07:29;;;;;;;6.93;5.20;;;27.20;85.70;;;;;;5067436;28;20021;-50
2021/12/31 09:09:55;;;;;;;7.15;5.57;;;27.20;85.80;;;;;;5067465;28;20360;-49
2021/12/31 09:12:22;;;;;;;6.88;5.72;;;27.20;85.80;;;;;;5067294;28;20098;-47
2021/12/31 09:14:48;;;;;;;7.13;5.72;;;27.20;85.80;;;;;;5067568;28;20032;-45
2021/12/31 09:17:15;;;;;;;8.98;5.90;;;27.20;85.80;;;;;;5066813;28;20045;-47
2021/12/31 09:19:42;;;;;;;6.00;5.40;;;27.20;85.90;;;;;;5067422;28;20092;-46
2021/12/31 09:22:09;;;;;;;9.15;5.80;;;27.20;85.90;;;;;;5066864;28;20012;-46
2021/12/31 09:24:36;;;;;;;7.25;5.70;;;27.20;86.00;;;;;;5067042;28;20029;-45
2021/12/31 09:27:02;;;;;;;8.40;5.70;;;27.20;86.00;;;;;;5066940;28;20019;-48
2021/12/31 09:29:29;;;;;;;10.45;5.82;;;27.20;86.00;;;;;;5067275;28;20021;-46
2021/12/31 09:31:55;;;;;;;10.15;6.05;;;27.20;86.00;;;;;;5066539;28;20087;-50
2021/12/31 09:34:22;;;;;;;8.60;5.15;;;27.20;85.90;;;;;;5066995;28;20100;-44
2021/12/31 09:36:49;;;;;;;8.10;5.55;;;27.20;85.80;;;;;;5066684;28;20013;-48
2021/12/31 09:39:15;;;;;;;9.02;5.70;;;27.20;85.80;;;;;;5066908;28;20298;-45
2021/12/31 09:41:43;;;;;;;8.77;6.07;;;27.20;85.60;;;;;;5066488;28;20420;-51
2021/12/31 09:44:15;;;;;;;10.43;6.03;;;27.20;85.50;;;;;;5066718;28;20025;-46
2021/12/31 09:46:42;;;;;;;7.78;5.55;;;27.20;85.40;;;;;;5066347;28;20322;-42
2021/12/31 09:49:09;;;;;;;7.07;5.40;;;27.20;85.30;;;;;;5066173;28;20044;-48
2021/12/31 09:51:41;;;;;;;8.38;5.18;;;27.10;84.90;;;;;;5066381;28;20017;-47
2021/12/31 09:54:07;;;;;;;8.00;5.10;;;27.10;84.80;;;;;;5066542;28;20025;-44
2021/12/31 09:56:39;;;;;;;6.68;4.85;;;27.10;84.60;;;;;;5066515;28;20017;-42
2021/12/31 09:59:06;;;;;;;8.93;5.00;;;27.10;84.50;;;;;;5066519;28;20048;-45
2021/12/31 10:01:33;;;;;;;9.63;5.07;;;27.20;84.40;;;;;;5066048;28;20049;-45
2021/12/31 10:04:04;;;;;;;8.35;5.22;;;27.10;84.10;;;;;;5065535;28;20344;-44
2021/12/31 10:06:31;;;;;;;8.70;5.70;;;27.20;84.20;;;;;;5066069;28;20053;-46
2021/12/31 10:09:03;;;;;;;8.63;5.70;;;27.20;84.00;;;;;;5066146;28;20313;-51
2021/12/31 10:11:29;;;;;;;;;;;27.20;83.90;;;;;;5066486;28;20021;-45
2021/12/31 10:14:05;;;;;;;10.07;5.10;;;27.10;83.80;;;;;;5066260;28;19909;-49
2021/12/31 10:16:40;;;;;;;13.00;5.78;;;27.10;83.90;;;;;;5065874;28;20090;-47
2021/12/31 10:19:20;;;;;;;9.43;6.30;;;27.10;84.00;;;;;;5066067;28;20221;-47
2021/12/31 10:21:54;;;;;;;14.60;6.85;;;27.10;83.90;;;;;;5065886;28;20019;-43
2021/12/31 10:24:23;;;;;;;12.68;5.63;;;27.10;84.00;;;;;;5066041;28;20135;-45
2021/12/31 10:26:51;;;;;;;7.57;4.97;;;27.10;84.00;;;;;;5065572;28;20013;-48
2021/12/31 10:29:18;;;;;;;11.68;5.60;;;27.10;83.80;;;;;;5065927;28;20071;-42
2021/12/31 10:31:47;;;;;;;6.07;4.53;;;27.10;83.70;;;;;;5065512;28;20060;-40
2021/12/31 10:34:31;;;;;;;9.45;5.20;;;27.00;83.70;;;;;;5065361;28;20032;-42
2021/12/31 10:37:03;;;;;;;10.75;5.38;;;27.00;83.90;;;;;;5065606;28;20112;-48
2021/12/31 10:39:37;;;;;;;11.77;6.43;;;27.10;84.10;;;;;;5065718;28;20021;-44
2021/12/31 10:42:09;;;;;;;12.20;6.53;;;27.10;84.30;;;;;;5065325;28;20313;-48
2021/12/31 10:44:48;;;;;;;13.70;6.43;;;27.00;84.40;;;;;;5065509;28;20029;-52
2021/12/31 10:47:27;;;;;;;10.23;6.45;;;27.00;84.70;;;;;;5065556;28;20021;-41
2021/12/31 10:50:10;;;;;;;10.18;6.07;;;27.00;84.90;;;;;;5065502;28;20028;-48
2021/12/31 10:52:54;;;;;;;11.55;6.28;;;27.00;85.00;;;;;;5065158;28;20012;-43
2021/12/31 10:55:27;;;;;;;10.40;6.57;;;27.00;85.10;;;;;;5065065;28;20088;-49
2021/12/31 10:57:57;;;;;;;14.88;6.25;;;27.00;85.30;;;;;;5065008;28;20029;-46
2021/12/31 11:00:26;;;;;;;13.40;6.43;;;27.00;85.30;;;;;;5064897;28;20020;-44
2021/12/31 11:02:53;;;;;;;13.43;6.28;;;27.00;85.50;;;;;;5064909;28;20017;-43
2021/12/31 11:05:21;;;;;;;11.43;6.47;;;27.00;85.60;;;;;;5064882;28;20027;-48
2021/12/31 11:07:49;;;;;;;10.88;6.50;;;26.90;85.70;;;;;;5064807;28;20249;-46
2021/12/31 11:10:16;;;;;;;16.70;6.40;;;26.90;85.90;;;;;;5065041;28;20325;-43
2021/12/31 11:12:47;;;;;;;17.05;6.88;;;26.90;86.00;;;;;;5064952;28;20021;-42
2021/12/31 11:15:15;;;;;;;15.18;6.72;;;26.90;86.10;;;;;;5065094;28;20032;-44
2021/12/31 11:17:42;;;;;;;59.55;10.70;;;26.90;86.20;;;;;;5064590;28;20025;-43
2021/12/31 11:20:10;;;;;;;33.28;10.10;;;26.90;86.30;;;;;;5065203;28;20037;-46
2021/12/31 11:22:37;;;;;;;21.60;7.28;;;26.90;86.40;;;;;;5064504;28;20017;-45
2021/12/31 11:25:27;;;;;;;23.80;7.53;;;26.90;86.40;;;;;;5064966;28;20100;-45
2021/12/31 11:27:56;;;;;;;25.42;8.30;;;26.90;86.40;;;;;;5064351;28;20013;-53
2021/12/31 11:30:39;;;;;;;25.27;7.43;;;26.90;86.40;;;;;;5064577;28;20246;-44
2021/12/31 11:33:24;;;;;;;13.07;6.38;;;26.80;86.20;;;;;;5064359;28;20302;-45
2021/12/31 11:35:54;;;;;;;13.32;6.45;;;26.80;86.10;;;;;;5064418;28;20222;-41
2021/12/31 11:38:26;;;;;;;14.48;7.43;;;26.80;85.90;;;;;;5064217;28;20105;-43
2021/12/31 11:41:04;;;;;;;12.82;6.82;;;26.80;86.30;;;;;;5064175;28;20013;-44
2021/12/31 11:43:32;;;;;;;22.65;7.10;;;26.80;85.70;;;;;;5064176;28;20033;-50
2021/12/31 11:46:19;;;;;;;28.33;7.70;;;26.80;85.70;;;;;;5064494;28;20025;-51
2021/12/31 11:48:49;;;;;;;13.80;6.50;;;26.80;85.50;;;;;;5058976;28;20194;-44
2021/12/31 11:51:28;;;;;;;25.05;7.75;;;26.80;85.50;;;;;;5044516;28;20205;-42
2021/12/31 11:54:00;;;;;;;26.73;9.10;;;26.80;85.50;;;;;;5064064;28;20066;-51
2021/12/31 11:56:33;;;;;;;;;;;26.80;85.80;;;;;;5038607;28;20013;-47
2021/12/31 11:59:24;;;;;;;15.93;7.30;;;26.80;86.00;;;;;;5041419;28;19920;-44
2021/12/31 12:02:16;;;;;;;14.85;7.43;;;26.80;86.20;;;;;;5043828;28;20313;-46
2021/12/31 12:05:11;;;;;;;17.00;7.60;;;26.80;86.50;;;;;;5040144;28;20413;-48
2021/12/31 12:07:42;;;;;;;16.10;7.50;;;26.70;86.50;;;;;;5039127;28;20017;-47
2021/12/31 12:10:11;;;;;;;29.77;8.23;;;26.80;86.50;;;;;;5042592;28;20033;-48
2021/12/31 12:12:40;;;;;;;98.32;17.85;;;26.80;86.40;;;;;;5038891;28;20020;-46
2021/12/31 12:15:15;;;;;;;151.30;23.15;;;26.80;86.50;;;;;;5044041;28;20029;-42
2021/12/31 12:17:44;;;;;;;173.18;24.15;;;26.80;86.60;;;;;;5062011;28;20028;-46
2021/12/31 12:20:18;;;;;;;155.75;21.67;;;26.80;86.70;;;;;;5063526;28;20372;-46
2021/12/31 12:22:56;;;;;;;132.93;18.40;;;26.80;86.80;;;;;;5063786;28;20078;-48
2021/12/31 12:25:29;;;;;;;116.05;17.67;;;26.70;86.80;;;;;;5063616;28;20037;-49
2021/12/31 12:27:58;;;;;;;110.18;17.20;;;26.80;86.90;;;;;;5063015;28;20068;-49
2021/12/31 12:30:25;;;;;;;136.50;19.20;;;26.80;86.80;;;;;;5063547;28;20047;-48
2021/12/31 12:35:36;;;;;;;109.15;16.55;;;26.70;87.60;;;;;;5063658;28;20043;-47
2021/12/31 12:38:23;;;;;;;62.05;12.02;;;26.80;87.80;;;;;;5063568;28;20044;-48
2021/12/31 12:40:59;;;;;;;51.88;11.27;;;26.70;87.90;;;;;;5063531;28;20048;-49
2021/12/31 12:43:37;;;;;;;29.83;9.20;;;26.80;88.10;;;;;;5063474;28;20028;-46
2021/12/31 12:46:06;;;;;;;28.80;9.80;;;26.70;88.70;;;;;;5063231;28;20096;-49